Time;durP1;ratioP1;P1;durP2;ratioP2;P2;SDS_P1;SDS_P2;PMS_P1;PMS_P2;Temp;Humidity;BMP_temperature;BMP_pressure;BME280_temperature;BME280_humidity;BME280_pressure;Samples;Min_cycle;Max_cycle;Signal;HPM_P1;HPM_P2
2021/12/28 00:01:14;;;;;;;60.55;32.00;;;7.40;99.90;;;;;;5032469;28;20109;-80
2021/12/28 00:03:42;;;;;;;59.25;32.05;;;7.40;99.90;;;;;;5014816;28;20120;-81
2021/12/28 00:06:09;;;;;;;61.08;31.00;;;7.30;99.90;;;;;;5014397;28;20029;-76
2021/12/28 00:08:35;;;;;;;60.13;31.30;;;7.40;99.90;;;;;;5014468;28;20364;-76
2021/12/28 00:11:03;;;;;;;58.97;32.65;;;7.40;99.90;;;;;;5031550;28;20034;-76
2021/12/28 00:13:30;;;;;;;54.30;30.00;;;7.40;99.90;;;;;;5014370;28;20553;-77
2021/12/28 00:18:23;;;;;;;54.63;29.30;;;7.30;99.90;;;;;;5032054;28;20036;-76
2021/12/28 00:20:52;;;;;;;56.85;30.10;;;7.40;99.90;;;;;;5032585;28;20076;-76
2021/12/28 00:23:36;;;;;;;55.15;29.33;;;7.40;99.90;;;;;;5020394;28;20029;-76
2021/12/28 00:26:02;;;;;;;50.83;28.65;;;7.40;99.90;;;;;;5018502;28;20049;-76
2021/12/28 00:28:28;;;;;;;50.33;29.65;;;7.40;99.90;;;;;;5036291;28;20105;-76
2021/12/28 00:30:54;;;;;;;53.83;29.17;;;7.40;99.90;;;;;;5035755;28;20112;-76
2021/12/28 00:33:22;;;;;;;54.75;28.90;;;7.40;99.90;;;;;;5036108;28;20602;-76
2021/12/28 00:35:48;;;;;;;57.63;30.83;;;7.40;99.90;;;;;;5018254;28;20109;-76
2021/12/28 00:38:19;;;;;;;56.80;30.33;;;7.40;99.90;;;;;;5036037;28;20052;-76
2021/12/28 00:40:50;;;;;;;55.30;29.98;;;7.40;99.90;;;;;;5018262;28;20025;-76
2021/12/28 00:43:17;;;;;;;57.72;28.98;;;7.40;99.90;;;;;;5018296;28;20483;-76
2021/12/28 00:45:43;;;;;;;55.70;28.38;;;7.40;99.90;;;;;;5035970;28;20543;-76
2021/12/28 00:48:11;;;;;;;56.20;29.70;;;7.40;99.90;;;;;;5018170;28;20365;-76
2021/12/28 00:50:37;;;;;;;63.28;31.00;;;7.40;99.90;;;;;;5017680;28;20368;-76
2021/12/28 00:53:04;;;;;;;66.10;33.30;;;7.40;99.90;;;;;;5018295;28;20038;-76
2021/12/28 00:55:30;;;;;;;68.93;32.13;;;7.40;99.90;;;;;;5036004;28;20029;-76
2021/12/28 00:57:56;;;;;;;62.92;33.35;;;7.40;99.90;;;;;;5017801;28;20029;-76
2021/12/28 01:00:27;;;;;;;60.08;31.30;;;7.40;99.90;;;;;;5035445;28;20052;-76
2021/12/28 01:02:54;;;;;;;67.07;31.87;;;7.30;99.90;;;;;;5017905;28;20079;-76
2021/12/28 01:05:20;;;;;;;60.25;32.33;;;7.40;99.90;;;;;;5035512;28;20108;-76
2021/12/28 01:07:46;;;;;;;60.53;31.52;;;7.30;99.90;;;;;;5018212;28;20057;-76
2021/12/28 01:10:15;;;;;;;60.33;31.85;;;7.30;99.90;;;;;;5018741;28;20077;-76
2021/12/28 01:12:41;;;;;;;54.65;29.55;;;7.30;99.90;;;;;;5035491;28;20029;-77
2021/12/28 01:15:09;;;;;;;60.40;31.40;;;7.30;99.90;;;;;;5019146;28;20481;-76
2021/12/28 01:17:36;;;;;;;61.15;31.63;;;7.30;99.90;;;;;;5017842;28;20025;-76
2021/12/28 01:20:05;;;;;;;56.28;29.58;;;7.30;99.90;;;;;;5035191;28;20119;-76
2021/12/28 01:22:32;;;;;;;61.47;31.65;;;7.30;99.90;;;;;;5017658;28;20041;-76
2021/12/28 01:24:57;;;;;;;59.13;31.52;;;7.30;99.90;;;;;;5017471;28;20399;-76
2021/12/28 01:27:23;;;;;;;57.65;30.70;;;7.40;99.90;;;;;;5034690;28;20053;-76
2021/12/28 01:29:49;;;;;;;61.20;31.95;;;7.40;99.90;;;;;;5017277;28;20511;-76
2021/12/28 01:32:15;;;;;;;57.95;31.10;;;7.40;99.90;;;;;;5015992;28;20034;-76
2021/12/28 01:34:42;;;;;;;60.47;30.15;;;7.40;99.90;;;;;;5034896;28;20057;-76
2021/12/28 01:37:08;;;;;;;58.65;29.48;;;7.40;99.90;;;;;;5016992;28;20036;-76
2021/12/28 01:39:34;;;;;;;58.10;29.95;;;7.40;99.90;;;;;;5024936;28;20029;-76
2021/12/28 01:42:04;;;;;;;64.85;32.35;;;7.40;99.90;;;;;;5016607;28;20072;-76
2021/12/28 01:44:30;;;;;;;62.28;31.30;;;7.40;99.90;;;;;;5017184;28;20152;-77
2021/12/28 01:46:56;;;;;;;59.63;30.35;;;7.40;99.90;;;;;;5016920;28;20516;-77
2021/12/28 01:49:22;;;;;;;63.05;30.58;;;7.40;99.90;;;;;;5034728;28;20491;-76
2021/12/28 01:51:47;;;;;;;55.47;29.55;;;7.40;99.90;;;;;;5016744;28;20038;-76
2021/12/28 01:54:14;;;;;;;53.58;28.80;;;7.40;99.90;;;;;;5034949;28;20037;-76
2021/12/28 01:56:44;;;;;;;55.10;30.13;;;7.40;99.90;;;;;;5034414;28;20032;-76
2021/12/28 01:59:12;;;;;;;51.78;28.85;;;7.40;99.90;;;;;;5034835;28;20638;-76
2021/12/28 02:01:39;;;;;;;55.22;29.83;;;7.40;99.90;;;;;;5016415;28;20519;-76
2021/12/28 02:04:17;;;;;;;56.50;29.48;;;7.40;99.90;;;;;;5017321;28;20029;-76
2021/12/28 02:06:43;;;;;;;49.72;28.40;;;7.40;99.90;;;;;;5034400;28;20030;-77
2021/12/28 02:09:09;;;;;;;54.67;30.52;;;7.40;99.90;;;;;;5034148;28;20075;-76
2021/12/28 02:11:36;;;;;;;55.90;28.13;;;7.40;99.90;;;;;;5033639;28;20034;-77
2021/12/28 02:14:05;;;;;;;53.78;29.13;;;7.40;99.90;;;;;;5034448;28;20048;-76
2021/12/28 02:16:31;;;;;;;55.83;30.52;;;7.40;99.90;;;;;;5034237;28;20021;-76
2021/12/28 02:18:57;;;;;;;66.25;31.08;;;7.50;99.90;;;;;;5034311;28;20029;-76
2021/12/28 02:21:22;;;;;;;60.00;31.25;;;7.40;99.90;;;;;;5033613;28;20030;-76
2021/12/28 02:23:48;;;;;;;61.63;31.52;;;7.40;99.90;;;;;;5034397;28;20391;-76
2021/12/28 02:26:14;;;;;;;70.80;33.65;;;7.50;99.90;;;;;;5016486;28;20045;-81
2021/12/28 02:28:39;;;;;;;67.45;32.20;;;7.40;99.90;;;;;;5034442;28;20026;-81
2021/12/28 02:31:05;;;;;;;66.20;32.95;;;7.40;99.90;;;;;;5016050;28;20040;-81
2021/12/28 02:33:35;;;;;;;64.68;31.60;;;7.40;99.90;;;;;;5034344;28;20026;-81
2021/12/28 02:36:03;;;;;;;63.25;32.05;;;7.40;99.90;;;;;;5016159;28;20040;-81
2021/12/28 02:38:30;;;;;;;66.95;32.40;;;7.40;99.90;;;;;;5016021;28;20383;-81
2021/12/28 02:40:57;;;;;;;69.32;34.40;;;7.40;99.90;;;;;;5015848;28;20067;-80
2021/12/28 02:43:23;;;;;;;69.45;34.03;;;7.40;99.90;;;;;;5033812;28;20030;-80
2021/12/28 02:45:57;;;;;;;68.68;34.47;;;7.40;99.90;;;;;;5033662;28;20052;-81
2021/12/28 02:48:25;;;;;;;67.30;32.97;;;7.40;99.90;;;;;;5016240;28;20026;-81
2021/12/28 02:50:57;;;;;;;66.47;32.47;;;7.40;99.90;;;;;;5015561;28;20125;-80
2021/12/28 02:53:23;;;;;;;57.90;30.98;;;7.40;99.90;;;;;;5033728;28;20035;-81
2021/12/28 02:55:50;;;;;;;70.68;33.67;;;7.40;99.90;;;;;;5033592;28;20104;-81
2021/12/28 02:58:35;;;;;;;68.22;33.78;;;7.30;99.90;;;;;;5016013;28;20055;-81
2021/12/28 03:01:06;;;;;;;62.33;32.78;;;7.40;99.90;;;;;;5015081;28;20112;-80
2021/12/28 03:03:33;;;;;;;63.03;31.85;;;7.30;99.90;;;;;;5010466;28;20029;-81
2021/12/28 03:06:00;;;;;;;59.47;30.67;;;7.30;99.90;;;;;;5015449;28;20033;-80
2021/12/28 03:08:28;;;;;;;58.83;30.38;;;7.30;99.90;;;;;;5033146;28;20068;-81
2021/12/28 03:10:55;;;;;;;63.58;32.35;;;7.30;99.90;;;;;;5009717;28;20118;-81
2021/12/28 03:13:27;;;;;;;60.25;31.38;;;7.30;99.90;;;;;;5033306;28;20052;-81
2021/12/28 03:15:53;;;;;;;59.38;31.02;;;7.30;99.90;;;;;;5033092;28;20407;-80
2021/12/28 03:18:19;;;;;;;59.70;31.30;;;7.30;99.90;;;;;;5033371;28;20523;-81
2021/12/28 03:20:46;;;;;;;59.15;31.67;;;7.30;99.90;;;;;;5032816;28;20096;-80
2021/12/28 03:23:17;;;;;;;60.08;31.05;;;7.30;99.90;;;;;;5033217;28;20680;-81
2021/12/28 03:25:44;;;;;;;58.43;31.03;;;7.30;99.90;;;;;;5032818;28;20064;-80
2021/12/28 03:28:16;;;;;;;58.25;30.08;;;7.30;99.90;;;;;;5032837;28;20343;-80
2021/12/28 03:30:42;;;;;;;59.33;31.60;;;7.30;99.90;;;;;;5032633;28;20025;-80
2021/12/28 03:33:08;;;;;;;52.88;28.83;;;7.30;99.90;;;;;;5033205;28;20049;-80
2021/12/28 03:35:34;;;;;;;57.35;29.40;;;7.30;99.90;;;;;;5032714;28;20103;-81
2021/12/28 03:37:59;;;;;;;55.65;30.55;;;7.30;99.90;;;;;;5015229;28;20405;-81
2021/12/28 03:40:25;;;;;;;56.63;29.67;;;7.40;99.90;;;;;;5026058;28;20017;-80
2021/12/28 03:42:51;;;;;;;61.97;29.55;;;7.30;99.90;;;;;;5010119;28;20025;-80
2021/12/28 03:45:17;;;;;;;62.90;30.25;;;7.30;99.90;;;;;;5032762;28;20483;-80
2021/12/28 03:47:42;;;;;;;60.70;29.00;;;7.30;99.90;;;;;;5032880;28;20025;-81
2021/12/28 03:50:10;;;;;;;64.60;33.28;;;7.30;99.90;;;;;;5027156;28;20029;-80
2021/12/28 03:52:36;;;;;;;74.88;33.65;;;7.30;99.90;;;;;;5032619;28;20053;-80
2021/12/28 03:55:03;;;;;;;75.57;32.25;;;7.40;99.90;;;;;;5032477;28;20022;-81
2021/12/28 03:57:29;;;;;;;70.93;32.80;;;7.40;99.90;;;;;;5031985;28;20024;-80
2021/12/28 03:59:55;;;;;;;64.38;30.95;;;7.30;99.90;;;;;;5031914;28;20115;-80
2021/12/28 04:02:21;;;;;;;65.53;33.10;;;7.30;99.90;;;;;;5014972;28;20059;-81
2021/12/28 04:04:46;;;;;;;66.30;31.67;;;7.30;99.90;;;;;;5032614;28;20025;-80
2021/12/28 04:07:18;;;;;;;61.78;30.58;;;7.30;99.90;;;;;;5032502;28;20364;-80
2021/12/28 04:12:21;;;;;;;62.20;30.80;;;7.30;99.90;;;;;;5027196;28;20088;-80
2021/12/28 04:14:47;;;;;;;55.55;28.88;;;7.30;99.90;;;;;;5032457;28;20022;-81
2021/12/28 04:17:13;;;;;;;55.17;29.02;;;7.30;99.90;;;;;;5032380;28;20032;-81
2021/12/28 04:19:39;;;;;;;51.05;27.60;;;7.30;99.90;;;;;;5031866;28;20491;-80
2021/12/28 04:22:06;;;;;;;56.88;28.10;;;7.30;99.90;;;;;;5032432;28;20038;-80
2021/12/28 04:24:32;;;;;;;56.08;29.75;;;7.30;99.90;;;;;;5032162;28;20033;-81
2021/12/28 04:26:58;;;;;;;48.42;26.88;;;7.20;99.90;;;;;;5014331;28;20495;-80
2021/12/28 04:29:24;;;;;;;50.38;24.75;;;7.20;99.90;;;;;;5032355;28;20060;-81
2021/12/28 04:31:50;;;;;;;50.55;24.98;;;7.20;99.90;;;;;;5031442;28;20067;-80
2021/12/28 04:34:17;;;;;;;64.53;29.20;;;7.20;99.90;;;;;;5031970;28;20021;-80
2021/12/28 04:36:43;;;;;;;65.85;31.50;;;7.10;99.90;;;;;;5029837;28;20097;-80
2021/12/28 04:39:09;;;;;;;69.30;31.60;;;7.10;99.90;;;;;;5032160;28;20026;-80
2021/12/28 04:41:35;;;;;;;66.68;31.65;;;7.10;99.90;;;;;;5031443;28;20100;-81
2021/12/28 04:44:01;;;;;;;67.78;30.80;;;7.10;99.90;;;;;;5032119;28;20108;-81
2021/12/28 04:46:31;;;;;;;64.60;30.42;;;7.20;99.90;;;;;;5014528;28;20052;-80
2021/12/28 04:48:57;;;;;;;65.03;31.40;;;7.20;99.90;;;;;;5014512;28;20116;-81
2021/12/28 04:51:23;;;;;;;69.45;32.35;;;7.20;99.90;;;;;;5031691;28;20029;-80
2021/12/28 04:53:50;;;;;;;75.10;32.20;;;7.20;99.90;;;;;;5032132;28;20394;-81
2021/12/28 04:56:16;;;;;;;62.40;31.77;;;7.10;99.90;;;;;;5018245;28;20026;-80
2021/12/28 04:58:42;;;;;;;61.15;30.92;;;7.10;99.90;;;;;;5014419;28;20025;-80
2021/12/28 05:01:07;;;;;;;64.88;31.00;;;7.20;99.90;;;;;;5031764;28;20030;-81
2021/12/28 05:03:33;;;;;;;61.17;30.45;;;7.10;99.90;;;;;;5014386;28;20367;-81
2021/12/28 05:05:59;;;;;;;61.45;29.23;;;7.20;99.90;;;;;;5016313;28;20061;-80
2021/12/28 05:08:25;;;;;;;55.55;29.45;;;7.20;99.90;;;;;;5035020;28;20083;-80
2021/12/28 05:10:52;;;;;;;48.67;26.77;;;7.20;99.90;;;;;;5034938;28;20083;-80
2021/12/28 05:13:18;;;;;;;48.78;26.58;;;7.20;99.90;;;;;;5023053;28;20064;-80
2021/12/28 05:15:45;;;;;;;46.05;25.85;;;7.20;99.90;;;;;;5017668;28;20030;-81
2021/12/28 05:18:12;;;;;;;47.75;26.20;;;7.20;99.90;;;;;;5017780;28;20409;-80
2021/12/28 05:20:38;;;;;;;40.25;24.30;;;7.20;99.90;;;;;;5016406;28;20075;-80
2021/12/28 05:23:05;;;;;;;45.78;24.95;;;7.30;99.90;;;;;;5017689;28;20083;-80
2021/12/28 05:25:31;;;;;;;39.42;23.40;;;7.30;99.90;;;;;;5035252;28;20041;-81
2021/12/28 05:27:57;;;;;;;44.83;25.02;;;7.20;99.90;;;;;;5035214;28;20518;-80
2021/12/28 05:30:22;;;;;;;41.20;24.67;;;7.30;99.90;;;;;;5035140;28;20068;-81
2021/12/28 05:32:48;;;;;;;40.38;24.63;;;7.30;99.90;;;;;;5035106;28;20033;-76
2021/12/28 05:35:14;;;;;;;42.78;24.35;;;7.30;99.90;;;;;;5019789;28;20033;-76
2021/12/28 05:37:40;;;;;;;44.05;24.45;;;7.30;99.90;;;;;;5019683;28;20103;-76
2021/12/28 05:40:08;;;;;;;44.30;24.60;;;7.30;99.90;;;;;;5029992;28;20026;-76
2021/12/28 05:42:34;;;;;;;45.78;25.40;;;7.30;99.90;;;;;;5035764;28;20053;-76
2021/12/28 05:45:00;;;;;;;46.95;23.75;;;7.30;99.90;;;;;;5029501;28;20049;-76
2021/12/28 05:47:26;;;;;;;41.67;23.60;;;7.30;99.90;;;;;;5022930;28;20387;-76
2021/12/28 05:49:52;;;;;;;47.75;24.75;;;7.30;99.90;;;;;;5014674;28;20025;-77
2021/12/28 05:52:18;;;;;;;60.92;28.88;;;7.30;99.90;;;;;;5034393;28;20025;-76
2021/12/28 05:54:44;;;;;;;59.28;27.50;;;7.20;99.90;;;;;;5016985;28;20048;-77
2021/12/28 05:57:09;;;;;;;58.38;29.65;;;7.20;99.90;;;;;;5034515;28;20048;-77
2021/12/28 05:59:35;;;;;;;63.83;29.95;;;7.20;99.90;;;;;;5016781;28;20075;-76
2021/12/28 06:02:02;;;;;;;63.22;29.65;;;7.20;99.90;;;;;;5034444;28;20108;-77
2021/12/28 06:04:27;;;;;;;62.30;28.17;;;7.20;99.90;;;;;;5034632;28;20029;-76
2021/12/28 06:06:53;;;;;;;61.22;29.48;;;7.10;99.90;;;;;;5034016;28;20080;-77
2021/12/28 06:09:19;;;;;;;52.88;27.67;;;7.10;99.90;;;;;;5016172;28;20026;-76
2021/12/28 06:11:45;;;;;;;57.03;29.15;;;7.10;99.90;;;;;;5016494;28;20468;-76
2021/12/28 06:14:10;;;;;;;60.08;29.45;;;7.10;99.90;;;;;;5034549;28;20045;-76
2021/12/28 06:16:37;;;;;;;59.50;29.00;;;7.00;99.90;;;;;;5034147;28;20025;-76
2021/12/28 06:19:04;;;;;;;53.00;28.27;;;7.00;99.90;;;;;;5033473;28;20080;-76
2021/12/28 06:21:31;;;;;;;60.45;28.88;;;7.10;99.90;;;;;;5034406;28;20033;-76
2021/12/28 06:23:59;;;;;;;54.75;28.13;;;7.10;99.90;;;;;;5029099;28;20025;-77
2021/12/28 06:26:29;;;;;;;55.83;28.17;;;7.10;99.90;;;;;;5033858;28;20445;-76
2021/12/28 06:28:55;;;;;;;61.03;28.95;;;7.10;99.90;;;;;;5034308;28;20025;-76
2021/12/28 06:31:21;;;;;;;61.65;29.38;;;7.10;99.90;;;;;;5033942;28;20040;-77
2021/12/28 06:33:46;;;;;;;55.60;29.15;;;7.10;99.90;;;;;;5016302;28;20049;-76
2021/12/28 06:36:12;;;;;;;51.53;27.98;;;7.10;99.90;;;;;;5033971;28;20029;-76
2021/12/28 06:38:38;;;;;;;59.75;29.70;;;7.10;99.90;;;;;;5016266;28;20017;-76
2021/12/28 06:41:06;;;;;;;52.53;28.23;;;7.10;99.90;;;;;;5017918;28;20483;-76
2021/12/28 06:43:32;;;;;;;45.53;24.70;;;7.10;99.90;;;;;;5021745;28;20029;-76
2021/12/28 06:45:58;;;;;;;48.95;26.58;;;7.20;99.90;;;;;;5021682;28;20029;-76
2021/12/28 06:48:24;;;;;;;50.90;27.13;;;7.10;99.90;;;;;;5015947;28;20045;-76
2021/12/28 06:50:50;;;;;;;50.13;25.95;;;7.20;99.90;;;;;;5033447;28;20693;-76
2021/12/28 06:53:17;;;;;;;45.22;25.10;;;7.20;99.90;;;;;;5033686;28;20021;-76
2021/12/28 06:55:42;;;;;;;49.33;25.73;;;7.20;99.90;;;;;;5025123;28;20088;-76
2021/12/28 06:58:08;;;;;;;46.42;24.35;;;7.20;99.90;;;;;;5033398;28;20479;-76
2021/12/28 07:00:35;;;;;;;48.67;24.85;;;7.20;99.90;;;;;;5033101;28;20542;-76
2021/12/28 07:03:00;;;;;;;46.03;24.05;;;7.20;99.90;;;;;;5032971;28;20365;-76
2021/12/28 07:05:26;;;;;;;46.63;25.20;;;7.20;99.90;;;;;;5033454;28;20025;-76
2021/12/28 07:07:52;;;;;;;57.28;27.83;;;7.20;99.90;;;;;;5021094;28;20495;-76
2021/12/28 07:10:21;;;;;;;47.90;26.17;;;7.20;99.90;;;;;;5015642;28;20063;-76
2021/12/28 07:12:51;;;;;;;58.10;29.73;;;7.30;99.90;;;;;;5033139;28;20037;-77
2021/12/28 07:15:18;;;;;;;58.78;29.75;;;7.30;99.90;;;;;;5033269;28;20022;-77
2021/12/28 07:17:44;;;;;;;57.15;29.40;;;7.30;99.90;;;;;;5015498;28;20022;-76
2021/12/28 07:20:11;;;;;;;52.90;26.98;;;7.30;99.90;;;;;;5015472;28;20041;-76
2021/12/28 07:22:37;;;;;;;47.90;26.27;;;7.30;99.90;;;;;;5015289;28;20120;-77
2021/12/28 07:25:06;;;;;;;56.53;28.80;;;7.30;99.90;;;;;;5032952;28;20258;-77
2021/12/28 07:27:32;;;;;;;55.90;29.42;;;7.30;99.90;;;;;;5018907;28;20025;-76
2021/12/28 07:29:58;;;;;;;71.90;34.17;;;7.20;99.90;;;;;;5033116;28;20084;-77
2021/12/28 07:32:23;;;;;;;66.43;31.75;;;7.20;99.90;;;;;;5032649;28;20029;-76
2021/12/28 07:34:49;;;;;;;55.22;29.33;;;7.20;99.90;;;;;;5033040;28;20018;-76
2021/12/28 07:37:15;;;;;;;56.47;28.75;;;7.20;99.90;;;;;;5032815;28;20025;-76
2021/12/28 07:39:41;;;;;;;70.82;36.88;;;7.20;99.90;;;;;;5015120;28;20017;-76
2021/12/28 07:42:07;;;;;;;69.22;36.33;;;7.30;99.90;;;;;;5032875;28;20022;-76
2021/12/28 07:44:36;;;;;;;63.25;32.45;;;7.30;99.90;;;;;;5014857;28;20041;-77
2021/12/28 07:47:12;;;;;;;54.45;30.88;;;7.30;99.90;;;;;;5020190;28;20095;-76
2021/12/28 07:49:41;;;;;;;56.50;30.27;;;7.30;99.90;;;;;;5014469;28;20025;-76
2021/12/28 07:52:07;;;;;;;59.47;29.67;;;7.30;99.90;;;;;;5032338;28;20037;-76
2021/12/28 07:54:33;;;;;;;66.82;31.55;;;7.30;99.90;;;;;;5032244;28;20496;-76
2021/12/28 07:57:13;;;;;;;74.75;36.45;;;7.30;99.90;;;;;;5030592;28;20109;-77
2021/12/28 07:59:39;;;;;;;76.40;36.17;;;7.10;99.90;;;;;;5012246;28;20573;-76
2021/12/28 08:02:05;;;;;;;69.38;37.35;;;7.10;99.90;;;;;;5032496;28;20037;-76
2021/12/28 08:04:31;;;;;;;67.57;34.55;;;7.10;99.90;;;;;;5032045;28;20037;-76
2021/12/28 08:06:57;;;;;;;63.55;32.88;;;7.10;99.90;;;;;;5022096;28;20029;-76
2021/12/28 08:09:33;;;;;;;61.85;33.22;;;7.10;99.90;;;;;;5032097;28;20026;-77
2021/12/28 08:11:59;;;;;;;64.53;34.15;;;7.10;99.90;;;;;;5017184;28;20044;-76
2021/12/28 08:14:25;;;;;;;65.65;32.25;;;7.20;99.90;;;;;;5032231;28;20030;-76
2021/12/28 08:16:51;;;;;;;57.88;30.90;;;7.20;99.90;;;;;;5014552;28;20033;-76
2021/12/28 08:19:16;;;;;;;56.15;29.25;;;7.20;99.90;;;;;;5023235;28;20502;-76
2021/12/28 08:21:49;;;;;;;56.42;31.83;;;7.30;99.90;;;;;;5028877;28;20091;-76
2021/12/28 08:24:15;;;;;;;63.70;33.42;;;7.30;99.90;;;;;;5014560;28;20059;-76
2021/12/28 08:26:41;;;;;;;61.28;31.95;;;7.30;99.90;;;;;;5032091;28;20056;-76
2021/12/28 08:29:07;;;;;;;58.80;32.70;;;7.30;99.90;;;;;;5014233;28;20033;-76
2021/12/28 08:31:36;;;;;;;55.67;30.55;;;7.40;99.90;;;;;;5031945;28;20666;-76
2021/12/28 08:34:03;;;;;;;55.10;30.17;;;7.40;99.90;;;;;;5031933;28;20179;-76
2021/12/28 08:36:29;;;;;;;53.63;30.65;;;7.30;99.90;;;;;;5029517;28;20036;-76
2021/12/28 08:38:54;;;;;;;53.22;29.98;;;7.30;99.90;;;;;;5031841;28;20471;-76
2021/12/28 08:41:21;;;;;;;58.08;30.55;;;7.30;99.90;;;;;;5031902;28;20025;-76
2021/12/28 08:43:48;;;;;;;61.60;34.15;;;7.30;99.90;;;;;;5036035;28;20029;-77
2021/12/28 08:46:14;;;;;;;66.32;35.08;;;7.30;99.90;;;;;;5036211;28;20506;-80
2021/12/28 08:48:41;;;;;;;59.90;31.95;;;7.30;99.90;;;;;;5018517;28;20033;-80
2021/12/28 08:51:07;;;;;;;53.67;30.92;;;7.40;99.90;;;;;;5018334;28;20040;-80
2021/12/28 08:53:33;;;;;;;54.75;29.20;;;7.40;99.90;;;;;;5021316;28;20083;-80
2021/12/28 08:55:59;;;;;;;50.15;28.65;;;7.40;99.90;;;;;;5035800;28;20029;-80
2021/12/28 08:58:24;;;;;;;52.65;30.20;;;7.50;99.90;;;;;;5035904;28;20030;-80
2021/12/28 09:00:50;;;;;;;61.30;31.45;;;7.50;99.90;;;;;;5020462;28;20422;-80
2021/12/28 09:03:16;;;;;;;56.00;28.95;;;7.50;99.90;;;;;;5012406;28;20092;-80
2021/12/28 09:05:42;;;;;;;58.20;30.83;;;7.50;99.90;;;;;;5035486;28;20033;-80
2021/12/28 09:08:13;;;;;;;59.47;31.65;;;7.50;99.90;;;;;;5017906;28;20028;-80
2021/12/28 09:10:40;;;;;;;63.33;32.70;;;7.50;99.90;;;;;;5018101;28;20068;-80
2021/12/28 09:13:07;;;;;;;69.80;32.90;;;7.50;99.90;;;;;;5035742;28;20017;-80
2021/12/28 09:15:35;;;;;;;72.40;35.08;;;7.50;99.90;;;;;;5017625;28;20388;-80
2021/12/28 09:18:01;;;;;;;60.80;31.63;;;7.50;99.90;;;;;;5012395;28;20395;-80
2021/12/28 09:20:26;;;;;;;61.35;32.83;;;7.50;99.90;;;;;;5035429;28;20026;-80
2021/12/28 09:22:53;;;;;;;60.95;34.13;;;7.60;99.90;;;;;;5035293;28;20109;-80
2021/12/28 09:25:19;;;;;;;66.57;34.20;;;7.60;99.90;;;;;;5035195;28;20036;-80
2021/12/28 09:27:46;;;;;;;68.13;35.70;;;7.60;99.90;;;;;;5034933;28;20148;-80
2021/12/28 09:30:13;;;;;;;70.68;34.95;;;7.60;99.90;;;;;;5035144;28;20076;-80
2021/12/28 09:32:39;;;;;;;73.20;35.45;;;7.70;99.90;;;;;;5034996;28;20487;-81
2021/12/28 09:35:06;;;;;;;67.97;35.15;;;7.70;99.90;;;;;;5017328;28;20128;-80
2021/12/28 09:37:35;;;;;;;72.90;36.47;;;7.70;99.90;;;;;;5034880;28;20028;-80
2021/12/28 09:40:03;;;;;;;78.88;37.10;;;7.70;99.90;;;;;;5035114;28;20025;-80
2021/12/28 09:42:29;;;;;;;67.38;33.55;;;7.70;99.90;;;;;;5034962;28;20065;-80
2021/12/28 09:44:55;;;;;;;65.25;35.00;;;7.80;99.90;;;;;;5034630;28;20498;-81
2021/12/28 09:47:21;;;;;;;59.03;32.40;;;7.80;99.90;;;;;;5034697;28;20110;-80
2021/12/28 09:49:48;;;;;;;67.80;32.83;;;7.80;99.90;;;;;;5034706;28;20049;-80
2021/12/28 09:52:15;;;;;;;66.63;32.00;;;7.80;99.90;;;;;;5022566;28;20032;-80
2021/12/28 09:54:41;;;;;;;69.30;34.05;;;7.90;99.90;;;;;;5033723;28;20017;-80
2021/12/28 09:57:07;;;;;;;59.92;32.33;;;7.90;99.90;;;;;;5022410;28;20495;-80
2021/12/28 09:59:36;;;;;;;59.03;31.73;;;7.90;99.90;;;;;;5016906;28;20021;-80
2021/12/28 10:02:09;;;;;;;60.35;31.70;;;8.00;99.90;;;;;;5034308;28;20029;-80
2021/12/28 10:04:35;;;;;;;63.85;31.77;;;8.00;99.90;;;;;;5034590;28;20053;-80
2021/12/28 10:07:19;;;;;;;60.83;31.90;;;8.00;99.90;;;;;;5017087;28;20025;-80
2021/12/28 10:09:46;;;;;;;65.90;31.73;;;8.10;99.90;;;;;;5033155;28;20033;-80
2021/12/28 10:12:12;;;;;;;59.28;30.80;;;8.10;99.90;;;;;;5022264;28;20029;-80
2021/12/28 10:14:38;;;;;;;58.00;30.42;;;8.10;99.90;;;;;;5034001;28;20025;-80
2021/12/28 10:17:07;;;;;;;60.00;30.38;;;8.20;99.90;;;;;;5034119;28;20788;-80
2021/12/28 10:19:38;;;;;;;60.05;30.13;;;8.20;99.90;;;;;;5027071;28;20025;-80
2021/12/28 10:22:27;;;;;;;56.22;29.85;;;8.20;99.90;;;;;;5037059;28;21560;-80
2021/12/28 10:24:58;;;;;;;52.47;29.38;;;8.20;99.90;;;;;;5030557;28;20032;-80
2021/12/28 10:27:27;;;;;;;58.70;29.98;;;8.20;99.90;;;;;;5033795;28;20063;-80
2021/12/28 10:29:54;;;;;;;53.17;27.85;;;8.20;99.90;;;;;;5013462;28;20479;-80
2021/12/28 10:32:20;;;;;;;56.28;28.98;;;8.20;99.90;;;;;;5033764;28;20021;-80
2021/12/28 10:34:49;;;;;;;58.88;29.83;;;8.20;99.90;;;;;;5016552;28;20029;-80
2021/12/28 10:37:21;;;;;;;56.13;27.98;;;8.30;99.90;;;;;;5036311;28;20013;-80
2021/12/28 10:39:51;;;;;;;59.30;29.27;;;8.20;99.90;;;;;;5042043;28;20071;-80
2021/12/28 10:42:42;;;;;;;60.47;30.33;;;8.20;99.90;;;;;;5016186;28;20025;-80
2021/12/28 10:45:18;;;;;;;58.60;30.98;;;8.20;99.90;;;;;;5011780;28;20501;-80
2021/12/28 10:47:44;;;;;;;59.55;30.83;;;8.20;99.90;;;;;;5015776;28;20037;-80
2021/12/28 10:50:22;;;;;;;62.42;30.85;;;8.20;99.90;;;;;;5033800;28;20105;-80
2021/12/28 10:52:59;;;;;;;58.40;31.35;;;8.20;99.90;;;;;;5033349;28;20037;-76
2021/12/28 10:55:27;;;;;;;60.67;31.27;;;8.20;99.90;;;;;;5015356;28;20030;-76
2021/12/28 10:57:52;;;;;;;73.15;35.90;;;8.30;99.90;;;;;;5032907;28;20045;-76
2021/12/28 11:00:25;;;;;;;67.72;34.63;;;8.30;99.90;;;;;;5033269;28;20017;-75
2021/12/28 11:03:09;;;;;;;68.57;34.15;;;8.30;99.90;;;;;;5018671;28;20472;-75
2021/12/28 11:05:35;;;;;;;67.53;34.13;;;8.30;99.90;;;;;;5020962;28;20095;-75
2021/12/28 11:08:01;;;;;;;65.30;33.38;;;8.30;99.90;;;;;;5027697;28;20024;-75
2021/12/28 11:10:28;;;;;;;69.55;33.95;;;8.30;99.90;;;;;;5030915;28;20036;-75
2021/12/28 11:12:55;;;;;;;69.28;34.13;;;8.30;99.90;;;;;;5015862;28;20090;-75
2021/12/28 11:15:24;;;;;;;73.40;33.55;;;8.40;99.90;;;;;;5033011;28;20480;-75
2021/12/28 11:17:51;;;;;;;67.88;34.38;;;8.40;99.90;;;;;;5010216;28;20124;-75
2021/12/28 11:20:28;;;;;;;69.97;34.33;;;8.50;99.90;;;;;;5032902;28;20025;-75
2021/12/28 11:23:11;;;;;;;65.15;32.10;;;8.50;99.90;;;;;;5034559;28;20115;-75
2021/12/28 11:25:37;;;;;;;67.65;33.97;;;8.50;99.90;;;;;;5035482;28;20040;-75
2021/12/28 11:28:19;;;;;;;72.50;35.90;;;8.50;99.90;;;;;;5031480;28;20025;-75
2021/12/28 11:31:06;;;;;;;75.18;37.58;;;8.60;99.90;;;;;;5036464;28;20025;-76
2021/12/28 11:33:44;;;;;;;73.63;37.85;;;8.60;99.90;;;;;;5011969;28;20448;-75
2021/12/28 11:36:11;;;;;;;79.97;37.22;;;8.50;99.90;;;;;;5020813;28;20029;-80
2021/12/28 11:38:39;;;;;;;76.78;37.42;;;8.50;99.90;;;;;;5032769;28;20543;-79
2021/12/28 11:41:06;;;;;;;67.60;34.60;;;8.60;99.90;;;;;;5032442;28;20032;-80
2021/12/28 11:43:34;;;;;;;71.15;35.83;;;8.50;99.90;;;;;;5032604;28;20025;-80
2021/12/28 11:46:00;;;;;;;76.53;36.63;;;8.60;99.90;;;;;;5017348;28;20041;-80
2021/12/28 11:48:26;;;;;;;74.45;37.00;;;8.50;99.90;;;;;;5032561;28;20419;-80
2021/12/28 11:50:53;;;;;;;73.80;35.80;;;8.50;99.90;;;;;;5032405;28;20083;-80
2021/12/28 11:53:20;;;;;;;73.10;35.85;;;8.50;99.90;;;;;;5032489;28;20479;-81
2021/12/28 11:55:45;;;;;;;75.82;37.92;;;8.50;99.90;;;;;;5032386;28;20025;-80
2021/12/28 11:58:11;;;;;;;74.72;36.42;;;8.50;99.90;;;;;;5032613;28;20096;-81
2021/12/28 12:00:39;;;;;;;74.32;37.60;;;8.60;99.90;;;;;;5020702;28;20033;-80
2021/12/28 12:03:06;;;;;;;72.93;36.33;;;8.50;99.90;;;;;;5015052;28;20502;-80
2021/12/28 12:05:33;;;;;;;76.95;37.25;;;8.60;99.90;;;;;;5032387;28;20029;-80
2021/12/28 12:08:03;;;;;;;76.38;36.25;;;8.60;99.90;;;;;;5017778;28;20029;-80
2021/12/28 12:10:31;;;;;;;77.40;36.38;;;8.60;99.90;;;;;;5032249;28;20025;-80
2021/12/28 12:13:05;;;;;;;72.18;36.03;;;8.60;99.90;;;;;;5011865;28;20029;-80
2021/12/28 12:15:40;;;;;;;77.93;37.17;;;8.60;99.90;;;;;;5029979;28;20033;-80
2021/12/28 12:18:10;;;;;;;74.15;36.25;;;8.60;99.90;;;;;;5028301;28;20037;-81
2021/12/28 12:20:37;;;;;;;75.75;36.67;;;8.60;99.90;;;;;;5025571;28;20026;-80
2021/12/28 12:23:08;;;;;;;78.07;37.95;;;8.70;99.90;;;;;;5011238;28;20487;-78
2021/12/28 12:25:47;;;;;;;82.50;36.13;;;8.70;99.90;;;;;;5029965;28;20049;-81
2021/12/28 12:28:13;;;;;;;77.57;37.25;;;8.70;99.90;;;;;;5007913;28;20447;-81
2021/12/28 12:30:47;;;;;;;76.85;36.45;;;8.70;99.90;;;;;;5029756;28;20102;-81
2021/12/28 12:33:15;;;;;;;78.93;39.47;;;8.80;99.90;;;;;;5012128;28;20076;-84
2021/12/28 12:35:56;;;;;;;73.05;36.58;;;8.80;99.90;;;;;;5029949;28;20026;-82
2021/12/28 12:38:24;;;;;;;81.80;35.83;;;8.80;99.90;;;;;;5012215;28;20089;-81
2021/12/28 12:41:11;;;;;;;78.07;37.40;;;8.80;99.90;;;;;;5029759;28;20018;-81
2021/12/28 12:43:39;;;;;;;72.38;35.95;;;8.80;99.90;;;;;;5025344;28;20025;-80